createdAt,value
2016-11-26T13:09:37.642Z,92.51
2016-11-26T13:10:37.650Z,92.6
2016-11-26T13:11:37.637Z,92.22
2016-11-26T13:12:37.635Z,92.6
2016-11-26T13:13:37.628Z,92.32
2016-11-26T13:14:37.631Z,92.51
2016-11-26T13:15:37.939Z,92.22
2016-11-26T13:16:37.930Z,91.75
2016-11-26T13:17:37.622Z,91.46
2016-11-26T13:18:37.614Z,91.56
2016-11-26T13:19:37.615Z,91.65
2016-11-26T13:20:37.617Z,91.08
2016-11-26T13:21:37.615Z,91.75
2016-11-26T13:22:37.918Z,91.27
2016-11-26T13:23:37.616Z,91.56
2016-11-26T13:24:37.596Z,91.56
2016-11-26T13:25:37.593Z,91.27
2016-11-26T13:26:37.591Z,91.75
2016-11-26T13:27:37.588Z,91.65
2016-11-26T13:28:37.584Z,91.65
2016-11-26T13:29:37.582Z,91.65
2016-11-26T13:30:37.582Z,91.17
2016-11-26T13:31:37.884Z,91.56
2016-11-26T13:32:37.580Z,91.46
2016-11-26T13:33:37.571Z,91.84
2016-11-26T13:34:37.578Z,91.27
2016-11-26T13:35:37.570Z,91.75
2016-11-26T13:36:37.571Z,91.37
2016-11-26T13:37:37.600Z,90.7
2016-11-26T13:38:37.556Z,90.8
2016-11-26T13:39:37.610Z,90.32
2016-11-26T13:40:38.113Z,90.7
2016-11-26T13:41:37.856Z,90.61
2016-11-26T13:42:37.852Z,90.22
2016-11-26T13:43:37.540Z,90.22
2016-11-26T13:44:37.541Z,90.61
2016-11-26T13:45:37.544Z,90.42
2016-11-26T13:46:37.534Z,90.42
2016-11-26T13:47:37.528Z,90.42
2016-11-26T13:48:37.527Z,90.03
2016-11-26T13:49:37.524Z,90.42
2016-11-26T13:50:37.517Z,90.22
2016-11-26T13:51:37.517Z,89.84
2016-11-26T13:52:37.511Z,89.94
2016-11-26T13:53:37.508Z,90.51
2016-11-26T13:54:37.561Z,90.61
2016-11-26T13:55:37.504Z,90.8
2016-11-26T13:56:37.499Z,90.22
2016-11-26T13:57:37.500Z,89.65
2016-11-26T13:58:37.495Z,90.03
2016-11-26T13:59:37.735Z,90.51
2016-11-26T14:00:37.488Z,90.8
2016-11-26T14:01:37.484Z,91.27
2016-11-26T14:02:37.481Z,90.99
2016-11-26T14:03:37.787Z,90.7
2016-11-26T14:04:37.476Z,91.08
2016-11-26T14:05:37.472Z,90.89
2016-11-26T14:06:37.473Z,91.08
2016-11-26T14:07:37.467Z,90.8
2016-11-26T14:08:37.780Z,91.08
2016-11-26T14:09:37.818Z,90.89
2016-11-26T14:10:37.459Z,91.56
2016-11-26T14:11:37.457Z,91.27
2016-11-26T14:12:37.453Z,91.75
2016-11-26T14:13:37.449Z,91.17
2016-11-26T14:14:37.446Z,91.08
2016-11-26T14:15:37.442Z,90.89
2016-11-26T14:16:37.437Z,91.17
2016-11-26T14:17:37.436Z,91.65
2016-11-26T14:18:37.448Z,91.46
2016-11-26T14:19:37.428Z,91.65
2016-11-26T14:20:37.429Z,91.65
2016-11-26T14:21:37.424Z,91.75
2016-11-26T14:22:37.424Z,91.84
2016-11-26T14:23:37.415Z,91.65
2016-11-26T14:24:37.612Z,91.65
2016-11-26T14:25:37.720Z,91.65
2016-11-26T14:26:37.407Z,91.65
2016-11-26T14:27:37.713Z,91.75
2016-11-26T14:28:37.408Z,91.08
2016-11-26T14:29:37.407Z,91.17
2016-11-26T14:30:37.396Z,90.89
2016-11-26T14:31:37.396Z,90.89
2016-11-26T14:32:37.416Z,91.08
2016-11-26T14:33:37.400Z,91.27
2016-11-26T14:34:37.379Z,91.46
2016-11-26T14:35:37.376Z,91.46
2016-11-26T14:36:37.373Z,91.65
2016-11-26T14:37:37.368Z,91.08
2016-11-26T14:38:37.366Z,91.17
2016-11-26T14:39:37.363Z,91.56
2016-11-26T14:40:37.668Z,91.75
2016-11-26T14:41:37.359Z,91.84
2016-11-26T14:42:37.353Z,91.56
2016-11-26T14:43:37.354Z,92.32
2016-11-26T14:44:37.347Z,92.41
2016-11-26T14:45:37.374Z,92.32
2016-11-26T14:46:37.346Z,92.22
2016-11-26T14:47:37.354Z,92.6
2016-11-26T14:48:37.334Z,92.7
2016-11-26T14:49:37.351Z,92.7
2016-11-26T14:50:37.327Z,93.18
2016-11-26T14:51:37.322Z,93.18
2016-11-26T14:52:37.358Z,93.41
2016-11-26T14:53:37.363Z,93.18
2016-11-26T14:54:37.317Z,93.84
2016-11-26T14:55:37.319Z,93.27
2016-11-26T14:56:37.621Z,93.27
2016-11-26T14:57:37.618Z,93.55
2016-11-26T14:58:37.320Z,93.46
2016-11-26T14:59:37.295Z,93.37
2016-11-26T15:00:37.296Z,93.08
2016-11-26T15:01:37.295Z,94.18
2016-11-26T15:02:37.316Z,93.94
2016-11-26T15:03:37.595Z,94.56
2016-11-26T15:04:37.279Z,94.37
2016-11-26T15:05:37.278Z,94.46
2016-11-26T15:06:37.271Z,94.74
2016-11-26T15:07:37.268Z,94.74
2016-11-26T15:08:37.576Z,94.93
2016-11-26T15:09:37.260Z,94.46
2016-11-26T15:10:37.263Z,95.12
2016-11-26T15:11:37.569Z,95.41
2016-11-26T15:12:37.259Z,96.17
2016-11-26T15:13:37.259Z,96.17
2016-11-26T15:14:37.242Z,97.03
2016-11-26T15:15:37.241Z,97.03
2016-11-26T15:16:37.239Z,96.74
2016-11-26T15:17:37.547Z,96.65
2016-11-26T15:18:37.229Z,96.94
2016-11-26T15:19:37.544Z,96.65
2016-11-26T15:20:37.533Z,96.36
2016-11-26T15:21:37.223Z,96.94
2016-11-26T15:22:37.216Z,97.31
2016-11-26T15:23:37.220Z,97.6
2016-11-26T15:24:37.249Z,97.69
2016-11-26T15:25:37.256Z,97.5
2016-11-26T15:26:37.205Z,97.31
2016-11-26T15:27:37.200Z,97.88
2016-11-26T15:29:03.312Z,98.46
2016-11-26T15:29:37.202Z,97.41
2016-11-26T15:30:37.193Z,98.17
2016-11-26T15:31:37.193Z,98.27
2016-11-26T15:32:37.177Z,98.69
2016-11-26T15:33:37.192Z,98.79
2016-11-26T15:34:37.175Z,99.45
2016-11-26T15:35:37.179Z,99.26
2016-11-26T15:36:37.172Z,98.97
2016-11-26T15:37:37.470Z,98.79
2016-11-26T15:38:37.162Z,98.69
2016-11-26T15:39:37.162Z,98.69
2016-11-26T15:40:37.166Z,98.88
2016-11-26T15:41:37.145Z,99.26
2016-11-26T15:42:37.142Z,99.5
2016-11-26T15:43:37.141Z,99.64
2016-11-26T15:44:37.447Z,99.99
2016-11-26T15:45:37.140Z,99.99
2016-11-26T15:46:37.435Z,99.99
2016-11-26T15:47:37.121Z,99.36
2016-11-26T15:48:37.114Z,99.99
2016-11-26T15:49:37.114Z,99.99
2016-11-26T15:50:37.109Z,99.74
2016-11-26T15:51:37.416Z,99.69
2016-11-26T15:52:37.413Z,99.5
2016-11-26T15:53:37.095Z,99.88
2016-11-26T15:54:37.092Z,99.99
2016-11-26T15:55:37.089Z,99.99
2016-11-26T15:56:37.086Z,99.79
2016-11-26T15:57:37.081Z,99.41
2016-11-26T15:58:37.396Z,99.22
2016-11-26T15:59:37.076Z,99.55
2016-11-26T16:00:37.070Z,99.36
2016-11-26T16:01:37.392Z,99.69
2016-11-26T16:02:37.063Z,99.99
2016-11-26T16:03:37.056Z,99.99
2016-11-26T16:04:37.055Z,99.84
2016-11-26T16:05:37.053Z,99.45
2016-11-26T16:06:37.363Z,99.99
2016-11-26T16:07:37.041Z,99.84
2016-11-26T16:08:37.035Z,99.99
2016-11-26T16:09:37.033Z,99.99
2016-11-26T16:10:37.341Z,99.99
2016-11-26T16:11:37.044Z,99.99
2016-11-26T16:12:37.347Z,99.99
2016-11-26T16:13:37.019Z,99.99
2016-11-26T16:14:37.015Z,99.99
2016-11-26T16:15:37.018Z,99.99
2016-11-26T16:16:37.009Z,99.99
2016-11-26T16:17:37.002Z,99.99
2016-11-26T16:18:37.002Z,99.99
2016-11-26T16:19:37.001Z,99.99
2016-11-26T16:20:37.006Z,99.99
2016-11-26T16:21:36.988Z,99.99
2016-11-26T16:22:36.979Z,99.99
2016-11-26T16:23:36.981Z,99.99
2016-11-26T16:24:36.987Z,99.79
2016-11-26T16:25:36.975Z,99.99
2016-11-26T16:26:36.970Z,99.99
2016-11-26T16:27:36.965Z,99.99
2016-11-26T16:28:37.314Z,99.98
2016-11-26T16:29:36.959Z,99.99
2016-11-26T16:30:36.961Z,99.99
2016-11-26T16:31:36.953Z,99.99
2016-11-26T16:32:36.951Z,99.99
2016-11-26T16:33:36.950Z,99.99
2016-11-26T16:34:36.952Z,99.99
2016-11-26T16:35:36.952Z,99.99
2016-11-26T16:36:36.933Z,99.99
2016-11-26T16:37:36.929Z,99.99
2016-11-26T16:38:37.311Z,99.98
2016-11-26T16:39:37.239Z,99.98
2016-11-26T16:40:36.916Z,99.98
2016-11-26T16:41:36.912Z,99.98
2016-11-26T16:42:36.911Z,99.99
2016-11-26T16:43:37.240Z,99.99
2016-11-26T16:44:36.902Z,99.99
2016-11-26T16:45:36.898Z,99.99
2016-11-26T16:46:36.904Z,99.99
2016-11-26T16:47:36.897Z,99.88
2016-11-26T16:48:36.897Z,99.99
2016-11-26T16:49:36.883Z,99.99
2016-11-26T16:50:37.194Z,99.69
2016-11-26T16:51:36.877Z,99.69
2016-11-26T16:52:37.192Z,99.69
2016-11-26T16:53:36.869Z,99.41
2016-11-26T16:54:36.886Z,99.99
2016-11-26T16:55:36.879Z,99.99
2016-11-26T16:56:36.858Z,99.79
2016-11-26T16:57:37.163Z,99.99
2016-11-26T16:58:36.856Z,99.98
2016-11-26T16:59:36.848Z,99.99
2016-11-26T17:00:37.157Z,99.69
2016-11-26T17:01:36.848Z,99.99
2016-11-26T17:02:36.835Z,99.88
2016-11-26T17:03:36.838Z,99.64
2016-11-26T17:04:36.836Z,99.99
2016-11-26T17:05:37.135Z,99.93
2016-11-26T17:06:36.823Z,99.99
2016-11-26T17:07:36.822Z,99.99
2016-11-26T17:08:36.812Z,99.99
2016-11-26T17:09:37.120Z,99.99
2016-11-26T17:10:36.817Z,99.99
2016-11-26T17:11:36.803Z,99.99
2016-11-26T17:12:37.109Z,99.99
2016-11-26T17:13:36.798Z,99.99
2016-11-26T17:14:36.797Z,99.99
2016-11-26T17:15:36.797Z,99.99
2016-11-26T17:16:37.093Z,99.99
2016-11-26T17:17:36.785Z,99.99
2016-11-26T17:18:36.784Z,99.99
2016-11-26T17:19:36.773Z,99.99
2016-11-26T17:20:36.785Z,99.99
2016-11-26T17:21:36.778Z,99.99
2016-11-26T17:22:36.765Z,99.99
2016-11-26T17:23:36.758Z,99.79
2016-11-26T17:24:37.072Z,99.98
2016-11-26T17:25:37.063Z,99.99
2016-11-26T17:26:36.748Z,99.99
2016-11-26T17:27:36.743Z,99.99
2016-11-26T17:28:36.739Z,99.99
2016-11-26T17:29:36.735Z,99.99
2016-11-26T17:30:36.732Z,99.99
2016-11-26T17:31:36.729Z,99.99
2016-11-26T17:32:36.735Z,99.88
2016-11-26T17:33:36.723Z,99.99
2016-11-26T17:34:36.745Z,99.69
2016-11-26T17:35:37.026Z,99.88
2016-11-26T17:36:36.714Z,99.41
2016-11-26T17:37:37.015Z,99.69
2016-11-26T17:38:36.705Z,99.6
2016-11-26T17:39:36.706Z,99.5
2016-11-26T17:40:36.729Z,99.12
2016-11-26T17:41:36.704Z,99.79
2016-11-26T17:42:36.690Z,99.5
2016-11-26T17:43:36.687Z,99.99
2016-11-26T17:44:36.684Z,99.99
2016-11-26T17:45:36.678Z,99.99
2016-11-26T17:46:36.675Z,99.5
2016-11-26T17:47:36.675Z,99.6
2016-11-26T17:48:36.667Z,99.74
2016-11-26T17:49:36.715Z,99.55
2016-11-26T17:50:36.971Z,99.84
2016-11-26T17:51:36.655Z,99.98
2016-11-26T17:52:36.654Z,99.99
2016-11-26T17:53:36.647Z,99.99
2016-11-26T17:54:36.955Z,99.99
2016-11-26T17:55:36.951Z,99.99
2016-11-26T17:56:36.636Z,99.99
2016-11-26T17:57:36.634Z,99.88
2016-11-26T17:58:36.634Z,99.88
2016-11-26T17:59:36.936Z,99.31
2016-11-26T18:00:36.934Z,99.31
2016-11-26T18:01:36.620Z,99.45
2016-11-26T18:02:36.615Z,99.84
2016-11-26T18:03:36.617Z,99.74
2016-11-26T18:04:36.608Z,99.99
2016-11-26T18:05:36.608Z,99.64
2016-11-26T18:06:36.603Z,99.99
2016-11-26T18:07:36.598Z,99.84
2016-11-26T18:08:36.592Z,99.74
2016-11-26T18:09:36.592Z,99.99
2016-11-26T18:10:36.587Z,99.88
2016-11-26T18:11:36.586Z,99.41
2016-11-26T18:12:36.584Z,99.5
2016-11-26T18:13:36.580Z,99.36
2016-11-26T18:14:36.882Z,99.26
2016-11-26T18:15:36.875Z,99.64
2016-11-26T18:16:36.569Z,99.55
2016-11-26T18:17:36.568Z,99.88
2016-11-26T18:18:36.559Z,99.99
2016-11-26T18:19:36.555Z,99.93
2016-11-26T18:20:36.558Z,99.98
2016-11-26T18:21:36.549Z,99.88
2016-11-26T18:22:36.539Z,99.99
2016-11-26T18:23:36.541Z,99.93
2016-11-26T18:24:36.537Z,99.98
2016-11-26T18:25:36.533Z,99.55
2016-11-26T18:26:36.833Z,99.99
2016-11-26T18:27:36.543Z,99.99
2016-11-26T18:28:36.518Z,99.99
2016-11-26T18:29:36.515Z,99.99
2016-11-26T18:30:36.516Z,99.99
2016-11-26T18:31:36.509Z,99.99
2016-11-26T18:32:36.505Z,99.99
2016-11-26T18:33:36.506Z,99.99
2016-11-26T18:34:36.517Z,99.99
2016-11-26T18:35:36.566Z,99.99
2016-11-26T18:36:36.487Z,99.99
2016-11-26T18:37:36.481Z,99.99
2016-11-26T18:38:36.476Z,99.99
2016-11-26T18:39:36.475Z,99.99
2016-11-26T18:40:36.472Z,99.99
2016-11-26T18:41:36.469Z,99.99
2016-11-26T18:42:36.461Z,99.99
2016-11-26T18:43:36.767Z,99.99
2016-11-26T18:44:36.458Z,99.99
2016-11-26T18:45:36.451Z,99.99
2016-11-26T18:46:36.445Z,99.99
2016-11-26T18:47:36.442Z,99.99
2016-11-26T18:48:36.447Z,99.99
2016-11-26T18:49:36.432Z,99.99
2016-11-26T18:50:36.430Z,99.99
2016-11-26T18:51:36.739Z,99.99
2016-11-26T18:52:36.746Z,99.99
2016-11-26T18:53:36.422Z,99.99
2016-11-26T18:54:36.419Z,99.99
